createdAt,value
2018-12-31T00:00:03.653Z,3.6
2018-12-31T00:01:03.781Z,3.6
2018-12-31T00:02:02.966Z,3.6
2018-12-31T00:03:03.038Z,3.6
2018-12-31T00:04:03.539Z,3.6
2018-12-31T00:05:03.227Z,3.6
2018-12-31T00:06:03.820Z,3.6
2018-12-31T00:07:02.988Z,3.6
2018-12-31T00:08:03.410Z,3.6
2018-12-31T00:09:03.201Z,3.6
2018-12-31T00:10:03.002Z,3.6
2018-12-31T00:11:03.033Z,3.6
2018-12-31T00:12:03.249Z,3.6
2018-12-31T00:13:03.050Z,3.6
2018-12-31T00:14:03.059Z,3.6
2018-12-31T00:15:04.194Z,3.6
2018-12-31T00:17:03.902Z,3.6
2018-12-31T00:18:03.254Z,3.6
2018-12-31T00:19:03.603Z,3.6
2018-12-31T00:20:02.030Z,3.6
2018-12-31T00:21:03.598Z,3.6
2018-12-31T00:22:02.912Z,3.6
2018-12-31T00:23:04.099Z,3.6
2018-12-31T00:24:03.487Z,3.6
2018-12-31T00:25:03.420Z,3.6
2018-12-31T00:26:03.608Z,3.6
2018-12-31T00:27:03.068Z,3.6
2018-12-31T00:28:03.108Z,3.6
2018-12-31T00:29:03.714Z,3.6
2018-12-31T00:30:03.702Z,3.6
2018-12-31T00:31:03.422Z,3.6
2018-12-31T00:32:03.174Z,3.6
2018-12-31T00:33:03.969Z,3.6
2018-12-31T00:34:03.527Z,3.6
2018-12-31T00:35:03.320Z,3.6
2018-12-31T00:36:03.272Z,3.6
2018-12-31T00:37:04.607Z,3.6
2018-12-31T00:38:02.904Z,3.6
2018-12-31T00:39:03.778Z,3.6
2018-12-31T00:40:03.643Z,3.6
2018-12-31T00:41:03.217Z,3.6
2018-12-31T00:42:03.173Z,3.6
2018-12-31T00:43:03.981Z,3.6
2018-12-31T00:44:03.065Z,3.6
2018-12-31T00:45:03.361Z,3.6
2018-12-31T00:46:03.645Z,3.6
2018-12-31T00:47:03.111Z,3.6
2018-12-31T00:48:03.859Z,3.6
2018-12-31T00:49:03.616Z,3.6
2018-12-31T00:50:03.697Z,3.6
2018-12-31T00:51:03.436Z,3.6
2018-12-31T00:52:03.151Z,3.6
2018-12-31T00:53:03.762Z,3.6
2018-12-31T00:54:03.836Z,3.6
2018-12-31T00:55:03.031Z,3.6
2018-12-31T00:56:02.009Z,3.6
2018-12-31T00:57:03.617Z,3.6
2018-12-31T00:58:02.869Z,3.6
2018-12-31T00:59:03.779Z,3.6
2018-12-31T01:00:03.598Z,3.6
2018-12-31T01:01:03.235Z,3.6
2018-12-31T01:02:03.623Z,3.6
2018-12-31T01:03:03.102Z,3.6
2018-12-31T01:04:02.859Z,3.6
2018-12-31T01:06:03.190Z,3.6
2018-12-31T01:07:03.009Z,3.6
2018-12-31T01:08:02.597Z,3.6
2018-12-31T01:09:03.181Z,3.6
2018-12-31T01:10:03.482Z,3.6
2018-12-31T01:11:03.337Z,3.6
2018-12-31T01:12:03.375Z,3.6
2018-12-31T01:13:03.231Z,3.6
2018-12-31T01:14:03.275Z,3.6
2018-12-31T01:15:03.329Z,3.6
2018-12-31T01:16:03.282Z,3.6
2018-12-31T01:17:02.954Z,3.6
2018-12-31T01:18:03.660Z,3.6
2018-12-31T01:19:03.494Z,3.6
2018-12-31T01:20:03.028Z,3.6
2018-12-31T01:21:03.068Z,3.6
2018-12-31T01:22:03.885Z,3.6
2018-12-31T01:23:03.263Z,3.6
2018-12-31T01:24:03.286Z,3.6
2018-12-31T01:25:03.744Z,3.6
2018-12-31T01:26:02.936Z,3.6
2018-12-31T01:27:03.637Z,3.6
2018-12-31T01:28:03.152Z,3.6
2018-12-31T01:29:02.804Z,3.6
2018-12-31T01:30:02.282Z,3.6
2018-12-31T01:31:03.279Z,3.6
2018-12-31T01:32:03.352Z,3.6
2018-12-31T01:33:03.677Z,3.6
2018-12-31T01:34:02.986Z,3.6
2018-12-31T01:35:03.550Z,3.6
2018-12-31T01:36:02.777Z,3.6
2018-12-31T01:37:03.038Z,3.6
2018-12-31T01:38:02.373Z,3.6
2018-12-31T01:39:02.932Z,3.6
2018-12-31T01:40:03.642Z,3.6
2018-12-31T01:41:03.791Z,3.6
2018-12-31T01:42:03.879Z,3.6
2018-12-31T01:43:03.244Z,3.6
2018-12-31T01:44:03.632Z,3.6
2018-12-31T01:45:03.235Z,3.6
2018-12-31T01:46:03.278Z,3.6
2018-12-31T01:47:03.088Z,3.6
2018-12-31T01:48:02.945Z,3.6
2018-12-31T01:49:02.697Z,3.6
2018-12-31T01:50:03.312Z,3.6
2018-12-31T01:51:02.785Z,3.6
2018-12-31T01:52:02.323Z,3.6
2018-12-31T01:53:03.281Z,3.6
2018-12-31T01:54:03.144Z,3.6
2018-12-31T01:55:03.796Z,3.6
2018-12-31T01:56:03.106Z,3.6
2018-12-31T01:57:02.072Z,3.6
2018-12-31T01:58:03.698Z,3.6
2018-12-31T01:59:03.446Z,3.6
2018-12-31T02:00:03.550Z,3.6
2018-12-31T02:01:07.144Z,3.6
2018-12-31T02:02:03.220Z,3.6
2018-12-31T02:03:03.007Z,3.6
2018-12-31T02:04:03.137Z,3.6
2018-12-31T02:05:02.874Z,3.6
2018-12-31T02:06:03.396Z,3.6
2018-12-31T02:07:02.955Z,3.6
2018-12-31T02:08:02.766Z,3.6
2018-12-31T02:09:04.528Z,3.6
2018-12-31T02:10:03.321Z,3.6
2018-12-31T02:11:03.696Z,3.6
2018-12-31T02:13:03.301Z,3.6
2018-12-31T02:14:03.201Z,3.6
2018-12-31T02:15:03.010Z,3.6
2018-12-31T02:16:03.825Z,3.6
2018-12-31T02:17:03.686Z,3.6
2018-12-31T02:18:03.823Z,3.6
2018-12-31T02:19:02.874Z,3.6
2018-12-31T02:20:02.720Z,3.6
2018-12-31T02:21:03.382Z,3.6
2018-12-31T02:22:02.902Z,3.6
2018-12-31T02:23:04.011Z,3.6
2018-12-31T02:24:03.251Z,3.6
2018-12-31T02:25:02.843Z,3.6
2018-12-31T02:26:03.330Z,3.6
2018-12-31T02:27:03.461Z,3.6
2018-12-31T02:28:03.386Z,3.5
2018-12-31T02:29:02.990Z,3.6
2018-12-31T02:30:04.200Z,3.6
2018-12-31T02:31:02.987Z,3.5
2018-12-31T02:32:03.157Z,3.5
2018-12-31T02:33:02.805Z,3.5
2018-12-31T02:34:02.694Z,3.5
2018-12-31T02:35:02.190Z,3.5
2018-12-31T02:36:03.787Z,3.5
2018-12-31T02:37:02.958Z,3.5
2018-12-31T02:38:02.823Z,3.5
2018-12-31T02:39:03.398Z,3.5
2018-12-31T02:40:03.289Z,3.5
2018-12-31T02:41:03.827Z,3.5
2018-12-31T02:42:02.913Z,3.5
2018-12-31T02:43:02.653Z,3.5
2018-12-31T02:44:03.160Z,3.5
2018-12-31T02:45:03.236Z,3.5
2018-12-31T02:46:03.300Z,3.5
2018-12-31T02:47:02.830Z,3.5
2018-12-31T02:48:03.632Z,3.5
2018-12-31T02:49:03.898Z,3.4
2018-12-31T02:50:03.584Z,3.4
2018-12-31T02:51:03.641Z,3.5
2018-12-31T02:52:03.455Z,3.4
2018-12-31T02:53:03.929Z,3.5
2018-12-31T02:55:03.290Z,3.5
2018-12-31T02:56:03.051Z,3.4
2018-12-31T02:57:04.066Z,3.5
2018-12-31T02:58:03.984Z,3.5
2018-12-31T02:59:03.812Z,3.4
2018-12-31T03:00:03.984Z,3.4
2018-12-31T03:01:03.445Z,3.4
2018-12-31T03:02:03.145Z,3.4
2018-12-31T03:03:03.683Z,3.5
2018-12-31T03:04:02.924Z,3.4
2018-12-31T03:05:03.735Z,3.4
2018-12-31T03:06:03.205Z,3.4
2018-12-31T03:07:03.796Z,3.4
2018-12-31T03:08:03.710Z,3.4
2018-12-31T03:09:03.817Z,3.4
2018-12-31T03:10:03.693Z,3.4
2018-12-31T03:11:03.675Z,3.4
2018-12-31T03:12:03.512Z,3.4
2018-12-31T03:13:03.269Z,3.4
2018-12-31T03:14:03.277Z,3.4
2018-12-31T03:15:03.576Z,3.4
2018-12-31T03:16:03.461Z,3.4
2018-12-31T03:17:03.460Z,3.4
2018-12-31T03:18:02.296Z,3.4
2018-12-31T03:19:03.743Z,3.4
2018-12-31T03:20:03.264Z,3.4
2018-12-31T03:21:02.379Z,3.4
2018-12-31T03:22:03.883Z,3.4
2018-12-31T03:23:03.122Z,3.4
2018-12-31T03:24:03.589Z,3.4
2018-12-31T03:25:03.451Z,3.4
2018-12-31T03:26:02.697Z,3.4
2018-12-31T03:27:02.910Z,3.4
2018-12-31T03:28:03.346Z,3.4
2018-12-31T03:29:03.589Z,3.4
2018-12-31T03:30:03.875Z,3.4
2018-12-31T03:31:03.180Z,3.4
2018-12-31T03:32:03.691Z,3.4
2018-12-31T03:33:03.209Z,3.4
2018-12-31T03:34:03.453Z,3.4
2018-12-31T03:35:02.680Z,3.4
2018-12-31T03:36:03.775Z,3.4
2018-12-31T03:37:04.299Z,3.4
2018-12-31T03:38:03.630Z,3.4
2018-12-31T03:39:03.644Z,3.4
2018-12-31T03:40:03.008Z,3.4
2018-12-31T03:42:03.040Z,3.4
2018-12-31T03:43:03.433Z,3.4
2018-12-31T03:44:03.033Z,3.4
2018-12-31T03:46:03.462Z,3.4
2018-12-31T03:47:03.033Z,3.4
2018-12-31T03:48:03.636Z,3.4
2018-12-31T03:49:03.737Z,3.4
2018-12-31T03:50:03.737Z,3.4
2018-12-31T03:51:03.440Z,3.4
2018-12-31T03:52:04.917Z,3.4
2018-12-31T03:53:03.506Z,3.4
2018-12-31T03:54:03.472Z,3.4
2018-12-31T03:55:03.692Z,3.4
2018-12-31T03:56:03.667Z,3.4
2018-12-31T03:57:03.498Z,3.4
2018-12-31T03:58:03.883Z,3.4
2018-12-31T03:59:03.296Z,3.4
2018-12-31T04:00:03.055Z,3.4
2018-12-31T04:01:03.095Z,3.4
2018-12-31T04:02:03.601Z,3.4
2018-12-31T04:03:03.577Z,3.4
2018-12-31T04:04:03.050Z,3.4
2018-12-31T04:05:03.014Z,3.4
2018-12-31T04:06:02.818Z,3.4
2018-12-31T04:07:03.204Z,3.4
2018-12-31T04:09:02.778Z,3.4
2018-12-31T04:10:03.007Z,3.4
2018-12-31T04:11:03.178Z,3.4
2018-12-31T04:12:02.869Z,3.4
2018-12-31T04:13:03.444Z,3.4
2018-12-31T04:14:02.924Z,3.4
2018-12-31T04:15:03.889Z,3.4
2018-12-31T04:16:03.544Z,3.4
2018-12-31T04:17:03.248Z,3.4
2018-12-31T04:18:03.107Z,3.4
2018-12-31T04:19:03.756Z,3.4
2018-12-31T04:20:04.765Z,3.4
2018-12-31T04:21:03.177Z,3.4
2018-12-31T04:22:04.220Z,3.4
2018-12-31T04:23:03.344Z,3.4
2018-12-31T04:24:02.982Z,3.4
2018-12-31T04:25:03.005Z,3.4
2018-12-31T04:26:03.512Z,3.4
2018-12-31T04:27:03.328Z,3.4
2018-12-31T04:28:03.129Z,3.4
2018-12-31T04:29:02.957Z,3.4
2018-12-31T04:30:03.214Z,3.4
2018-12-31T04:31:03.470Z,3.4
2018-12-31T04:32:02.330Z,3.4
2018-12-31T04:33:03.060Z,3.4
2018-12-31T04:34:03.537Z,3.4
2018-12-31T04:35:02.658Z,3.4
2018-12-31T04:36:03.167Z,3.4
2018-12-31T04:37:03.436Z,3.4
2018-12-31T04:38:03.325Z,3.4
2018-12-31T04:39:04.019Z,3.4
2018-12-31T04:40:03.928Z,3.4
2018-12-31T04:41:02.910Z,3.4
2018-12-31T04:42:03.804Z,3.4
2018-12-31T04:43:03.274Z,3.4
2018-12-31T04:44:02.906Z,3.4
2018-12-31T04:45:03.314Z,3.4
2018-12-31T04:46:03.104Z,3.4
2018-12-31T04:47:03.792Z,3.4
2018-12-31T04:48:03.278Z,3.4
2018-12-31T04:49:03.083Z,3.4
2018-12-31T04:50:03.436Z,3.4
2018-12-31T04:51:03.070Z,3.4
2018-12-31T04:52:02.883Z,3.4
2018-12-31T04:53:03.200Z,3.3
2018-12-31T04:54:03.289Z,3.3
2018-12-31T04:55:03.390Z,3.3
2018-12-31T04:56:03.046Z,3.3
2018-12-31T04:57:03.104Z,3.3
2018-12-31T04:58:03.508Z,3.3
2018-12-31T04:59:04.149Z,3.3
2018-12-31T05:00:03.526Z,3.3
2018-12-31T05:01:03.397Z,3.3
2018-12-31T05:02:03.172Z,3.3
2018-12-31T05:04:03.354Z,3.3
2018-12-31T05:05:02.449Z,3.3
2018-12-31T05:06:03.767Z,3.3
2018-12-31T05:07:02.529Z,3.3
2018-12-31T05:08:03.436Z,3.3
2018-12-31T05:09:03.815Z,3.3
2018-12-31T05:10:03.459Z,3.3
2018-12-31T05:11:03.722Z,3.3
2018-12-31T05:12:02.836Z,3.3
2018-12-31T05:13:03.648Z,3.3
2018-12-31T05:14:03.114Z,3.3
2018-12-31T05:15:03.572Z,3.3
2018-12-31T05:16:03.087Z,3.3
2018-12-31T05:17:03.632Z,3.3
2018-12-31T05:18:03.201Z,3.3
2018-12-31T05:19:03.133Z,3.3
2018-12-31T05:20:03.426Z,3.3
2018-12-31T05:21:03.313Z,3.3
2018-12-31T05:22:02.806Z,3.3
2018-12-31T05:24:03.006Z,3.3
2018-12-31T05:25:02.934Z,3.3
2018-12-31T05:26:03.294Z,3.3
2018-12-31T05:28:03.872Z,3.3
2018-12-31T05:29:03.202Z,3.3
2018-12-31T05:30:03.382Z,3.3
2018-12-31T05:31:03.903Z,3.3
2018-12-31T05:32:03.613Z,3.3
2018-12-31T05:33:03.648Z,3.3
2018-12-31T05:34:03.466Z,3.3
2018-12-31T05:35:03.681Z,3.3
2018-12-31T05:36:03.593Z,3.3
2018-12-31T05:37:03.300Z,3.3
2018-12-31T05:38:03.358Z,3.3
2018-12-31T05:39:04.196Z,3.3
2018-12-31T05:40:03.705Z,3.3
2018-12-31T05:41:03.037Z,3.2
2018-12-31T05:42:02.952Z,3.3
2018-12-31T05:43:03.757Z,3.3
2018-12-31T05:44:02.707Z,3.3
2018-12-31T05:45:03.188Z,3.3
2018-12-31T05:46:03.131Z,3.3
2018-12-31T05:47:03.012Z,3.3
2018-12-31T05:48:03.704Z,3.3
2018-12-31T05:49:03.298Z,3.2
2018-12-31T05:50:03.741Z,3.2
2018-12-31T05:51:01.997Z,3.2
2018-12-31T05:52:02.848Z,3.2
2018-12-31T05:53:03.054Z,3.2
2018-12-31T05:54:03.150Z,3.2
2018-12-31T05:55:03.664Z,3.2
2018-12-31T05:56:02.996Z,3.2
2018-12-31T05:57:01.995Z,3.3
2018-12-31T05:58:03.370Z,3.2
2018-12-31T05:59:03.778Z,3.2
2018-12-31T06:00:03.557Z,3.2
2018-12-31T06:01:03.733Z,3.3
2018-12-31T06:02:03.505Z,3.2
2018-12-31T06:03:03.434Z,3.2
2018-12-31T06:04:03.609Z,3.2
2018-12-31T06:05:03.040Z,3.2
2018-12-31T06:06:03.741Z,3.2
2018-12-31T06:07:03.714Z,3.2
2018-12-31T06:08:03.182Z,3.2
2018-12-31T06:09:03.511Z,3.2
2018-12-31T06:10:04.124Z,3.3
2018-12-31T06:11:03.461Z,3.2
2018-12-31T06:12:03.157Z,3.3
2018-12-31T06:13:02.882Z,3.3
2018-12-31T06:15:01.653Z,3.2
2018-12-31T06:16:03.656Z,3.2
2018-12-31T06:17:02.203Z,3.2
2018-12-31T06:18:03.484Z,3.2
2018-12-31T06:19:03.218Z,3.2
2018-12-31T06:20:03.939Z,3.2
2018-12-31T06:21:03.255Z,3.2
2018-12-31T06:22:04.203Z,3.2
2018-12-31T06:23:03.480Z,3.2
2018-12-31T06:24:03.460Z,3.2
2018-12-31T06:25:03.033Z,3.2
2018-12-31T06:26:03.070Z,3.2
2018-12-31T06:27:03.001Z,3.2
2018-12-31T06:28:03.062Z,3.2
2018-12-31T06:29:02.904Z,3.2
2018-12-31T06:30:03.082Z,3.2
2018-12-31T06:31:03.288Z,3.2
2018-12-31T06:32:03.180Z,3.2
2018-12-31T06:33:02.903Z,3.2
2018-12-31T06:34:02.972Z,3.2
2018-12-31T06:35:02.989Z,3.2
2018-12-31T06:36:03.836Z,3.2
2018-12-31T06:37:03.915Z,3.2
2018-12-31T06:38:03.878Z,3.2
2018-12-31T06:39:02.970Z,3.1
2018-12-31T06:40:01.960Z,3.2
2018-12-31T06:41:03.021Z,3.2
2018-12-31T06:42:05.523Z,3.2
2018-12-31T06:43:03.437Z,3.2
2018-12-31T06:44:03.124Z,3.2
2018-12-31T06:45:03.280Z,3.2
2018-12-31T06:46:03.339Z,3.2
2018-12-31T06:47:03.336Z,3.2
2018-12-31T06:48:03.549Z,3.2
2018-12-31T06:49:03.804Z,3.2
2018-12-31T06:50:03.005Z,3.2
2018-12-31T06:51:03.467Z,3.2
2018-12-31T06:52:03.303Z,3.2
2018-12-31T06:53:03.677Z,3.2
2018-12-31T06:54:03.208Z,3.2
2018-12-31T06:55:02.989Z,3.2
2018-12-31T06:56:03.123Z,3.1
2018-12-31T06:57:03.599Z,3.1
2018-12-31T06:58:03.264Z,3.2
2018-12-31T06:59:02.788Z,3.2
2018-12-31T07:00:03.425Z,3.2
2018-12-31T07:01:03.438Z,3.2
2018-12-31T07:02:02.696Z,3.2
2018-12-31T07:03:02.574Z,3.2
2018-12-31T07:04:02.221Z,3.1
2018-12-31T07:05:03.628Z,3.1
2018-12-31T07:06:03.443Z,3.1
2018-12-31T07:07:03.524Z,3.1
2018-12-31T07:08:03.663Z,3.1
2018-12-31T07:09:03.463Z,3.1
2018-12-31T07:10:03.035Z,3.1
2018-12-31T07:11:02.927Z,3.1
2018-12-31T07:12:03.457Z,3.1
2018-12-31T07:13:03.260Z,3.1
2018-12-31T07:14:03.333Z,3.1
2018-12-31T07:15:03.672Z,3.1
2018-12-31T07:16:03.305Z,3.1
2018-12-31T07:17:04.066Z,3.1
2018-12-31T07:18:02.961Z,3.1
2018-12-31T07:19:02.825Z,3.1
2018-12-31T07:20:03.070Z,3.1
2018-12-31T07:21:03.460Z,3.1
2018-12-31T07:22:03.469Z,3.1
2018-12-31T07:23:02.759Z,3.1
2018-12-31T07:25:03.225Z,3.1
2018-12-31T07:26:02.632Z,3.1
2018-12-31T07:27:06.865Z,3.1
2018-12-31T07:28:02.875Z,3.1
2018-12-31T07:29:03.749Z,3.2
2018-12-31T07:30:02.177Z,3.2
2018-12-31T07:31:02.919Z,3.1
2018-12-31T07:32:03.168Z,3.1
2018-12-31T07:33:03.024Z,3.1
2018-12-31T07:34:03.442Z,3.2
2018-12-31T07:35:03.128Z,3.1
2018-12-31T07:36:03.756Z,3.1
2018-12-31T07:37:03.182Z,3.2
2018-12-31T07:38:03.506Z,3.2
2018-12-31T07:39:03.269Z,3.2
2018-12-31T07:40:03.455Z,3.2
2018-12-31T07:41:03.418Z,3.2
2018-12-31T07:42:03.774Z,3.2
2018-12-31T07:43:02.937Z,3.2
2018-12-31T07:44:03.628Z,3.2
2018-12-31T07:45:03.389Z,3.1
2018-12-31T07:46:03.236Z,3.1
2018-12-31T07:47:03.068Z,3.2
2018-12-31T07:48:02.877Z,3.2
2018-12-31T07:49:03.396Z,3.2
2018-12-31T07:50:02.150Z,3.2
2018-12-31T07:51:01.852Z,3.2
2018-12-31T07:52:02.695Z,3.2
2018-12-31T07:53:01.588Z,3.2
2018-12-31T07:54:03.670Z,3.2
2018-12-31T07:55:03.339Z,3.2
2018-12-31T07:56:03.372Z,3.2
2018-12-31T07:57:03.500Z,3.2
2018-12-31T07:59:03.994Z,3.2
2018-12-31T08:00:03.347Z,3.2
2018-12-31T08:01:02.909Z,3.2
2018-12-31T08:02:03.146Z,3.2
2018-12-31T08:03:03.541Z,3.2
2018-12-31T08:04:03.350Z,3.2
2018-12-31T08:05:03.582Z,3.1
2018-12-31T08:06:05.503Z,3.2
2018-12-31T08:07:03.249Z,3.2
2018-12-31T08:08:03.782Z,3.2
2018-12-31T08:09:03.056Z,3.2
2018-12-31T08:10:03.036Z,3.2
2018-12-31T08:11:03.536Z,3.2
2018-12-31T08:13:02.986Z,3.1
2018-12-31T08:14:03.781Z,3.1
2018-12-31T08:15:03.042Z,3.2
2018-12-31T08:16:02.843Z,3.2
2018-12-31T08:17:03.636Z,3.2
2018-12-31T08:18:03.843Z,3.2
2018-12-31T08:19:03.267Z,3.2
2018-12-31T08:20:03.328Z,3.2
2018-12-31T08:21:03.427Z,3.2
2018-12-31T08:22:03.288Z,3.2
2018-12-31T08:23:03.257Z,3.2
2018-12-31T08:24:03.155Z,3.2
2018-12-31T08:25:03.548Z,3.2
2018-12-31T08:26:03.000Z,3.2
2018-12-31T08:27:02.960Z,3.2
2018-12-31T08:28:03.625Z,3.2
2018-12-31T08:29:03.133Z,3.2
2018-12-31T08:30:02.722Z,3.2
2018-12-31T08:31:03.592Z,3.3
2018-12-31T08:32:03.192Z,3.3
2018-12-31T08:33:03.402Z,3.3
2018-12-31T08:34:03.722Z,3.3
2018-12-31T08:35:03.752Z,3.3
2018-12-31T08:36:03.093Z,3.3
2018-12-31T08:37:03.133Z,3.3
2018-12-31T08:38:03.022Z,3.3
2018-12-31T08:39:02.817Z,3.3
2018-12-31T08:40:03.004Z,3.3
2018-12-31T08:41:02.400Z,3.3
2018-12-31T08:42:02.230Z,3.3
2018-12-31T08:43:03.570Z,3.3
2018-12-31T08:44:03.937Z,3.3
2018-12-31T08:45:03.695Z,3.3
2018-12-31T08:46:03.792Z,3.3
2018-12-31T08:47:03.199Z,3.3
2018-12-31T08:48:04.140Z,3.3
2018-12-31T08:49:02.894Z,3.3
2018-12-31T08:50:03.608Z,3.3
2018-12-31T08:51:02.992Z,3.3
2018-12-31T08:52:03.396Z,3.3
2018-12-31T08:53:03.321Z,3.3
2018-12-31T08:54:03.231Z,3.4
2018-12-31T08:55:03.555Z,3.4
2018-12-31T08:56:03.022Z,3.4
2018-12-31T08:57:03.498Z,3.4
2018-12-31T08:58:03.591Z,3.4
2018-12-31T08:59:02.934Z,3.4
2018-12-31T09:00:02.832Z,3.4
2018-12-31T09:01:03.052Z,3.4
2018-12-31T09:02:03.311Z,3.4
2018-12-31T09:03:02.921Z,3.4
2018-12-31T09:04:02.636Z,3.4
2018-12-31T09:05:03.898Z,3.4
2018-12-31T09:06:03.675Z,3.5
2018-12-31T09:07:02.758Z,3.5
2018-12-31T09:08:03.511Z,3.5
2018-12-31T09:09:03.656Z,3.5
2018-12-31T09:10:03.234Z,3.5
2018-12-31T09:11:02.904Z,3.5
2018-12-31T09:12:03.234Z,3.6
2018-12-31T09:13:03.337Z,3.5
2018-12-31T09:14:03.122Z,3.5
2018-12-31T09:15:03.935Z,3.6
2018-12-31T09:16:03.108Z,3.5
2018-12-31T09:17:03.489Z,3.5
2018-12-31T09:18:03.074Z,3.6
2018-12-31T09:19:03.612Z,3.5
2018-12-31T09:20:03.493Z,3.5
2018-12-31T09:21:03.020Z,3.6
2018-12-31T09:22:03.157Z,3.6
2018-12-31T09:23:02.981Z,3.6
2018-12-31T09:24:02.821Z,3.6
2018-12-31T09:25:03.494Z,3.6
2018-12-31T09:26:03.047Z,3.6
2018-12-31T09:27:02.825Z,3.5
2018-12-31T09:28:02.173Z,3.5
2018-12-31T09:29:02.188Z,3.5
2018-12-31T09:30:03.636Z,3.5
2018-12-31T09:31:01.991Z,3.6
2018-12-31T09:32:03.210Z,3.5
2018-12-31T09:33:02.891Z,3.6
2018-12-31T09:34:02.506Z,3.6
2018-12-31T09:35:03.705Z,3.6
2018-12-31T09:36:02.973Z,3.6
2018-12-31T09:37:03.187Z,3.6
2018-12-31T09:38:03.881Z,3.6
2018-12-31T09:39:03.342Z,3.5
2018-12-31T09:40:03.801Z,3.5
2018-12-31T09:41:03.617Z,3.5
2018-12-31T09:42:03.189Z,3.5
2018-12-31T09:43:03.113Z,3.5
2018-12-31T09:44:03.515Z,3.5
2018-12-31T09:45:03.018Z,3.6
2018-12-31T09:46:03.343Z,3.6
2018-12-31T09:47:03.540Z,3.6
2018-12-31T09:48:03.306Z,3.6
2018-12-31T09:49:03.443Z,3.6
2018-12-31T09:50:02.705Z,3.6
2018-12-31T09:51:02.682Z,3.6
2018-12-31T09:52:01.920Z,3.5
2018-12-31T09:53:03.121Z,3.6
2018-12-31T09:54:02.890Z,3.6
2018-12-31T09:55:04.016Z,3.6
2018-12-31T09:56:02.745Z,3.6
2018-12-31T09:57:02.923Z,3.6
2018-12-31T09:58:03.632Z,3.6
2018-12-31T09:59:02.926Z,3.6
2018-12-31T10:00:03.036Z,3.6
2018-12-31T10:01:02.886Z,3.6
2018-12-31T10:02:03.037Z,3.6
2018-12-31T10:03:03.716Z,3.6
2018-12-31T10:04:03.267Z,3.6
2018-12-31T10:05:06.776Z,3.6
2018-12-31T10:06:03.111Z,3.6
2018-12-31T10:07:03.819Z,3.6
2018-12-31T10:08:03.706Z,3.6
2018-12-31T10:09:03.092Z,3.6
2018-12-31T10:10:03.238Z,3.6
2018-12-31T10:11:03.054Z,3.6
2018-12-31T10:12:03.739Z,3.6
2018-12-31T10:13:03.594Z,3.6
2018-12-31T10:14:03.860Z,3.6
2018-12-31T10:15:01.973Z,3.6
2018-12-31T10:16:03.076Z,3.6
2018-12-31T10:17:03.651Z,3.6
2018-12-31T10:19:03.341Z,3.6
2018-12-31T10:20:03.037Z,3.6
2018-12-31T10:21:03.498Z,3.6
2018-12-31T10:22:03.401Z,3.6
2018-12-31T10:23:03.126Z,3.6
2018-12-31T10:24:03.834Z,3.6
2018-12-31T10:25:03.719Z,3.6
2018-12-31T10:26:03.130Z,3.6
2018-12-31T10:27:03.719Z,3.6
2018-12-31T10:28:04.008Z,3.6
2018-12-31T10:29:03.728Z,3.6
2018-12-31T10:30:03.391Z,3.6
2018-12-31T10:31:02.928Z,3.6
2018-12-31T10:32:03.459Z,3.6
2018-12-31T10:33:02.833Z,3.6
2018-12-31T10:34:03.731Z,3.6
2018-12-31T10:35:03.641Z,3.6
2018-12-31T10:36:03.506Z,3.6
2018-12-31T10:37:03.047Z,3.6
2018-12-31T10:38:03.223Z,3.6
2018-12-31T10:39:06.486Z,3.6
2018-12-31T10:40:03.571Z,3.6
2018-12-31T10:41:03.472Z,3.6
2018-12-31T10:42:03.177Z,3.6
2018-12-31T10:43:02.069Z,3.6
2018-12-31T10:44:03.069Z,3.6
2018-12-31T10:45:04.442Z,3.6
2018-12-31T10:46:03.566Z,3.6
2018-12-31T10:47:03.294Z,3.6
2018-12-31T10:48:03.661Z,3.6
2018-12-31T10:49:03.573Z,3.6
2018-12-31T10:50:03.282Z,3.6
2018-12-31T10:51:03.760Z,3.6
2018-12-31T10:52:03.650Z,3.6
2018-12-31T10:53:06.287Z,3.6
2018-12-31T10:54:02.818Z,3.6
2018-12-31T10:55:04.112Z,3.6
2018-12-31T10:56:03.280Z,3.6
2018-12-31T10:57:03.124Z,3.6
2018-12-31T10:58:03.517Z,3.6
2018-12-31T10:59:02.947Z,3.6
2018-12-31T11:00:03.219Z,3.6
2018-12-31T11:01:03.318Z,3.6
2018-12-31T11:02:03.604Z,3.6
2018-12-31T11:03:03.281Z,3.7
2018-12-31T11:04:03.326Z,3.6
2018-12-31T11:05:03.104Z,3.6
2018-12-31T11:06:02.184Z,3.7
2018-12-31T11:07:02.423Z,3.7
2018-12-31T11:08:03.017Z,3.7
2018-12-31T11:09:02.701Z,3.7
2018-12-31T11:10:03.145Z,3.7
2018-12-31T11:11:03.862Z,3.7
2018-12-31T11:12:03.801Z,3.7
2018-12-31T11:13:02.278Z,3.7
2018-12-31T11:14:03.781Z,3.7
2018-12-31T11:15:03.452Z,3.7
2018-12-31T11:16:03.601Z,3.7
2018-12-31T11:17:03.713Z,3.7
2018-12-31T11:18:03.108Z,3.7
2018-12-31T11:19:03.844Z,3.7
2018-12-31T11:20:02.974Z,3.6
2018-12-31T11:21:03.536Z,3.7
2018-12-31T11:22:04.845Z,3.7
2018-12-31T11:23:02.870Z,3.7
2018-12-31T11:24:03.825Z,3.7
2018-12-31T11:25:03.043Z,3.7
2018-12-31T11:26:03.656Z,3.7
2018-12-31T11:27:03.516Z,3.7
2018-12-31T11:28:03.724Z,3.7
2018-12-31T11:29:03.359Z,3.7
2018-12-31T11:30:03.735Z,3.6
2018-12-31T11:31:02.694Z,3.7
2018-12-31T11:32:03.883Z,3.7
2018-12-31T11:33:03.653Z,3.7
2018-12-31T11:34:02.257Z,3.7
2018-12-31T11:35:02.531Z,3.7
2018-12-31T11:36:03.048Z,3.7
2018-12-31T11:37:03.337Z,3.7
2018-12-31T11:38:03.605Z,3.7
2018-12-31T11:39:03.098Z,3.7
2018-12-31T11:40:02.757Z,3.7
2018-12-31T11:41:03.631Z,3.7
2018-12-31T11:42:15.712Z,3.7
2018-12-31T11:43:03.800Z,3.7
2018-12-31T11:44:03.395Z,3.6
2018-12-31T11:45:03.199Z,3.6
2018-12-31T11:46:03.186Z,3.7
2018-12-31T11:47:03.822Z,3.7
2018-12-31T11:48:03.612Z,3.7
2018-12-31T11:49:03.362Z,3.7
2018-12-31T11:50:03.163Z,3.7
2018-12-31T11:51:03.286Z,3.7
2018-12-31T11:52:03.134Z,3.7
2018-12-31T11:53:03.248Z,3.7
2018-12-31T11:54:03.273Z,3.8
2018-12-31T11:56:02.880Z,3.7
2018-12-31T11:57:03.073Z,3.7
2018-12-31T11:58:02.323Z,3.7
2018-12-31T11:59:02.582Z,3.7
2018-12-31T12:00:02.308Z,3.8
2018-12-31T12:01:03.924Z,3.8
2018-12-31T12:02:03.650Z,3.8
2018-12-31T12:03:01.878Z,3.8
2018-12-31T12:04:01.926Z,3.8
2018-12-31T12:05:04.340Z,3.8
2018-12-31T12:06:02.898Z,3.8
2018-12-31T12:07:03.631Z,3.8
2018-12-31T12:08:03.302Z,3.9
2018-12-31T12:09:03.694Z,3.9
2018-12-31T12:10:03.051Z,3.9
2018-12-31T12:11:03.966Z,3.8
2018-12-31T12:12:03.785Z,3.8
2018-12-31T12:13:03.550Z,3.8
2018-12-31T12:14:03.632Z,3.8
2018-12-31T12:15:03.570Z,3.9
2018-12-31T12:16:03.443Z,3.9
2018-12-31T12:17:02.845Z,3.8
2018-12-31T12:18:03.583Z,3.8
2018-12-31T12:19:03.113Z,3.8
2018-12-31T12:20:03.621Z,3.9
2018-12-31T12:21:02.144Z,3.9
2018-12-31T12:22:03.120Z,3.9
2018-12-31T12:23:03.407Z,3.9
2018-12-31T12:24:03.575Z,3.9
2018-12-31T12:26:03.841Z,3.9
2018-12-31T12:27:02.929Z,3.9
2018-12-31T12:28:03.058Z,3.9
2018-12-31T12:29:03.387Z,3.9
2018-12-31T12:30:03.784Z,3.9
2018-12-31T12:31:03.867Z,3.9
2018-12-31T12:32:03.262Z,3.9
2018-12-31T12:33:03.206Z,3.9
2018-12-31T12:34:03.420Z,3.9
2018-12-31T12:35:04.054Z,3.9
2018-12-31T12:36:03.736Z,3.9
2018-12-31T12:37:03.800Z,3.9
2018-12-31T12:38:03.771Z,3.9
2018-12-31T12:39:03.267Z,3.9
2018-12-31T12:40:03.310Z,3.9
2018-12-31T12:41:04.075Z,3.9
2018-12-31T12:42:04.698Z,4
2018-12-31T12:43:03.625Z,3.9
2018-12-31T12:44:03.710Z,3.9
2018-12-31T12:45:03.677Z,3.9
2018-12-31T12:46:03.276Z,3.9
2018-12-31T12:48:04.291Z,3.9
2018-12-31T12:49:03.318Z,3.9
2018-12-31T12:50:03.752Z,3.9
2018-12-31T12:51:04.686Z,3.9
2018-12-31T12:52:03.644Z,3.9
2018-12-31T12:53:03.655Z,3.9
2018-12-31T12:54:03.565Z,3.9
2018-12-31T12:55:03.664Z,3.9
2018-12-31T12:56:03.648Z,3.9
2018-12-31T12:57:03.394Z,3.9
2018-12-31T12:58:03.670Z,3.9
2018-12-31T12:59:01.816Z,3.9
2018-12-31T13:00:03.652Z,3.9
2018-12-31T13:01:03.327Z,3.9
2018-12-31T13:02:02.500Z,4
2018-12-31T13:03:03.155Z,3.9
2018-12-31T13:04:04.142Z,3.9
2018-12-31T13:05:04.359Z,3.9
2018-12-31T13:06:03.618Z,3.9
2018-12-31T13:07:03.100Z,3.9
2018-12-31T13:08:03.863Z,3.9
2018-12-31T13:09:02.825Z,3.9
2018-12-31T13:10:03.238Z,3.9
2018-12-31T13:11:02.866Z,3.9
2018-12-31T13:12:03.733Z,3.9
2018-12-31T13:13:03.695Z,3.9
2018-12-31T13:14:02.889Z,3.9
2018-12-31T13:15:02.514Z,3.9
2018-12-31T13:16:02.784Z,3.9
2018-12-31T13:17:02.500Z,3.9
2018-12-31T13:18:03.972Z,3.9
2018-12-31T13:19:03.641Z,3.9
2018-12-31T13:20:03.853Z,3.9
2018-12-31T13:21:03.573Z,3.9
2018-12-31T13:22:03.376Z,3.9
2018-12-31T13:23:03.571Z,3.9
2018-12-31T13:24:05.746Z,3.9
2018-12-31T13:25:02.633Z,3.9
2018-12-31T13:26:03.335Z,3.9
2018-12-31T13:27:03.444Z,3.9
2018-12-31T13:28:03.435Z,3.9
2018-12-31T13:29:04.180Z,3.9
2018-12-31T13:30:03.484Z,3.9
2018-12-31T13:31:03.767Z,3.9
2018-12-31T13:32:03.679Z,3.9
2018-12-31T13:33:03.181Z,3.9
2018-12-31T13:34:02.911Z,3.9
2018-12-31T13:35:03.592Z,3.9
2018-12-31T13:37:02.909Z,3.9
2018-12-31T13:38:02.920Z,3.9
2018-12-31T13:39:02.914Z,3.9
2018-12-31T13:40:02.299Z,3.9
2018-12-31T13:41:03.580Z,3.9
2018-12-31T13:42:03.319Z,3.9
2018-12-31T13:43:03.508Z,3.9
2018-12-31T13:44:02.760Z,3.9
2018-12-31T13:45:04.653Z,3.9
2018-12-31T13:46:03.701Z,3.9
2018-12-31T13:47:03.623Z,3.9
2018-12-31T13:48:03.356Z,3.9
2018-12-31T13:49:03.481Z,4
2018-12-31T13:50:04.050Z,4
2018-12-31T13:51:02.977Z,4
2018-12-31T13:52:03.727Z,4
2018-12-31T13:53:03.684Z,4
2018-12-31T13:54:03.952Z,3.9
2018-12-31T13:55:02.856Z,3.9
2018-12-31T13:56:02.705Z,4
2018-12-31T13:57:04.432Z,4
2018-12-31T13:58:03.204Z,3.9
2018-12-31T13:59:04.819Z,4
2018-12-31T14:00:03.882Z,4
2018-12-31T14:01:03.866Z,4
2018-12-31T14:02:02.855Z,4
2018-12-31T14:03:02.946Z,4
2018-12-31T14:04:03.756Z,4
2018-12-31T14:06:04.245Z,4
2018-12-31T14:07:03.244Z,4